createdAt,value
2022-09-12T00:01:44.342Z,7.90
2022-09-12T00:04:31.394Z,7.90
2022-09-12T00:07:18.174Z,7.80
2022-09-12T00:10:05.357Z,7.80
2022-09-12T00:12:53.615Z,7.80
2022-09-12T00:15:41.431Z,7.70
2022-09-12T00:18:28.381Z,7.70
2022-09-12T00:21:15.771Z,7.60
2022-09-12T00:24:03.573Z,7.60
2022-09-12T00:26:50.580Z,7.60
2022-09-12T00:29:38.553Z,7.60
2022-09-12T00:32:25.887Z,7.60
2022-09-12T00:35:13.049Z,7.60
2022-09-12T00:37:59.775Z,7.60
2022-09-12T00:40:46.858Z,7.60
2022-09-12T00:43:39.834Z,7.60
2022-09-12T00:46:39.151Z,7.60
2022-09-12T00:49:30.293Z,7.60
2022-09-12T00:52:21.819Z,7.70
2022-09-12T00:55:13.327Z,7.70
2022-09-12T00:58:04.972Z,7.80
2022-09-12T01:00:52.511Z,7.80
2022-09-12T01:03:41.188Z,7.90
2022-09-12T01:06:31.382Z,7.90
2022-09-12T01:09:20.852Z,8.00
2022-09-12T01:12:08.238Z,8.10
2022-09-12T01:14:54.782Z,8.10
2022-09-12T01:17:52.466Z,8.20
2022-09-12T01:21:10.267Z,8.20
2022-09-12T01:24:28.904Z,8.20
2022-09-12T01:27:53.988Z,8.20
2022-09-12T01:30:46.575Z,8.20
2022-09-12T01:33:57.177Z,8.20
2022-09-12T01:36:52.909Z,8.20
2022-09-12T01:39:46.068Z,8.30
2022-09-12T01:42:41.121Z,8.30
2022-09-12T01:45:34.503Z,8.30
2022-09-12T01:48:27.672Z,8.30
2022-09-12T01:51:22.203Z,8.30
2022-09-12T01:54:13.715Z,8.30
2022-09-12T01:57:05.797Z,8.30
2022-09-12T01:59:56.490Z,8.40
2022-09-12T02:02:50.670Z,8.40
2022-09-12T02:05:43.129Z,8.40
2022-09-12T02:08:33.163Z,8.50
2022-09-12T02:11:20.438Z,8.50
2022-09-12T02:14:10.477Z,8.50
2022-09-12T02:17:01.413Z,8.50
2022-09-12T02:19:52.529Z,8.50
2022-09-12T02:22:42.839Z,8.50
2022-09-12T02:25:31.529Z,8.40
2022-09-12T02:28:24.282Z,8.30
2022-09-12T02:31:18.003Z,8.20
2022-09-12T02:34:15.056Z,8.10
2022-09-12T02:37:09.198Z,8.10
2022-09-12T02:39:58.474Z,8.00
2022-09-12T02:42:45.657Z,8.00
2022-09-12T02:45:34.510Z,8.00
2022-09-12T02:48:24.837Z,8.00
2022-09-12T02:51:12.856Z,7.90
2022-09-12T02:54:00.817Z,7.90
2022-09-12T02:56:49.174Z,8.00
2022-09-12T02:59:35.967Z,8.00
2022-09-12T03:02:33.389Z,8.00
2022-09-12T03:05:28.006Z,8.10
2022-09-12T03:08:36.422Z,8.00
2022-09-12T03:11:43.186Z,8.00
2022-09-12T03:14:49.084Z,7.90
2022-09-12T03:17:45.217Z,7.90
2022-09-12T03:20:45.622Z,7.80
2022-09-12T03:23:38.264Z,7.70
2022-09-12T03:26:32.230Z,7.60
2022-09-12T03:29:20.408Z,7.60
2022-09-12T03:32:08.627Z,7.50
2022-09-12T03:34:55.482Z,7.50
2022-09-12T03:37:43.009Z,7.50
2022-09-12T03:40:29.678Z,7.40
2022-09-12T03:43:16.578Z,7.30
2022-09-12T03:46:03.573Z,7.30
2022-09-12T03:48:51.876Z,7.30
2022-09-12T03:51:38.820Z,7.20
2022-09-12T03:54:25.660Z,7.20
2022-09-12T03:57:12.342Z,7.30
2022-09-12T03:59:59.025Z,7.20
2022-09-12T04:02:45.888Z,7.20
2022-09-12T04:05:34.109Z,7.30
2022-09-12T04:08:20.754Z,7.30
2022-09-12T04:11:09.617Z,7.40
2022-09-12T04:13:56.324Z,7.40
2022-09-12T04:16:43.311Z,7.40
2022-09-12T04:19:30.417Z,7.50
2022-09-12T04:22:18.536Z,7.50
2022-09-12T04:25:06.108Z,7.60
2022-09-12T04:27:52.990Z,7.60
2022-09-12T04:30:39.863Z,7.60
2022-09-12T04:33:27.245Z,7.60
2022-09-12T04:36:16.906Z,7.60
2022-09-12T04:39:06.504Z,7.60
2022-09-12T04:41:53.623Z,7.60
2022-09-12T04:44:40.643Z,7.60
2022-09-12T04:47:27.297Z,7.70
2022-09-12T04:50:14.943Z,7.80
2022-09-12T04:53:01.752Z,7.80
2022-09-12T04:55:49.694Z,7.80
2022-09-12T04:58:36.624Z,7.80
2022-09-12T05:01:24.391Z,7.80
2022-09-12T05:04:12.043Z,7.80
2022-09-12T05:06:58.861Z,7.90
2022-09-12T05:09:47.192Z,7.90
2022-09-12T05:12:36.164Z,7.90
2022-09-12T05:15:24.437Z,7.90
2022-09-12T05:18:11.039Z,7.90
2022-09-12T05:21:00.253Z,7.90
2022-09-12T05:23:48.798Z,7.90
2022-09-12T05:26:35.596Z,8.00
2022-09-12T05:29:25.142Z,8.00
2022-09-12T05:32:12.577Z,8.00
2022-09-12T05:34:59.015Z,8.00
2022-09-12T05:37:45.815Z,8.00
2022-09-12T05:40:32.713Z,8.00
2022-09-12T05:43:20.389Z,8.10
2022-09-12T05:46:10.859Z,8.10
2022-09-12T05:48:58.549Z,8.20
2022-09-12T05:51:46.460Z,8.20
2022-09-12T05:54:34.412Z,8.30
2022-09-12T05:57:21.503Z,8.40
2022-09-12T06:00:09.964Z,8.50
2022-09-12T06:02:57.974Z,8.40
2022-09-12T06:05:48.767Z,8.60
2022-09-12T06:08:37.541Z,8.70
2022-09-12T06:11:26.728Z,8.70
2022-09-12T06:14:15.766Z,8.80
2022-09-12T06:17:02.740Z,8.90
2022-09-12T06:19:51.282Z,8.90
2022-09-12T06:22:38.038Z,9.10
2022-09-12T06:25:25.237Z,9.10
2022-09-12T06:28:11.797Z,9.00
2022-09-12T06:31:04.571Z,8.90
2022-09-12T06:33:53.595Z,8.90
2022-09-12T06:36:43.695Z,8.90
2022-09-12T06:39:31.627Z,9.30
2022-09-12T06:42:20.044Z,9.70
2022-09-12T06:45:08.176Z,9.90
2022-09-12T06:47:56.092Z,10.40
2022-09-12T06:50:43.249Z,10.60
2022-09-12T06:53:33.375Z,10.80
2022-09-12T06:56:21.739Z,11.10
2022-09-12T06:59:09.365Z,11.20
2022-09-12T07:01:56.625Z,11.10
2022-09-12T07:04:43.502Z,11.50
2022-09-12T07:07:34.237Z,11.30
2022-09-12T07:10:22.691Z,11.80
2022-09-12T07:13:09.764Z,12.20
2022-09-12T07:15:56.664Z,12.70
2022-09-12T07:18:46.734Z,13.20
2022-09-12T07:21:33.405Z,13.50
2022-09-12T07:24:20.149Z,13.30
2022-09-12T07:27:09.094Z,13.50
2022-09-12T07:29:55.922Z,13.60
2022-09-12T07:32:42.669Z,14.30
2022-09-12T07:35:29.732Z,15.00
2022-09-12T07:38:16.343Z,15.60
2022-09-12T07:41:03.613Z,16.00
2022-09-12T07:43:53.164Z,16.00
2022-09-12T07:46:40.218Z,16.30
2022-09-12T07:49:27.300Z,16.50
2022-09-12T07:52:13.755Z,16.80
2022-09-12T07:55:00.440Z,17.30
2022-09-12T07:57:50.033Z,17.40
2022-09-12T08:00:38.232Z,18.40
2022-09-12T08:03:25.161Z,19.10
2022-09-12T08:06:15.223Z,18.30
2022-09-12T08:09:02.617Z,18.50
2022-09-12T08:11:49.852Z,19.50
2022-09-12T08:14:36.873Z,19.20
2022-09-12T08:17:28.948Z,18.80
2022-09-12T08:20:16.040Z,19.10
2022-09-12T08:23:03.267Z,19.90
2022-09-12T08:25:50.067Z,20.50
2022-09-12T08:28:38.052Z,20.80
2022-09-12T08:31:26.822Z,21.10
2022-09-12T08:34:17.149Z,21.40
2022-09-12T08:37:04.187Z,20.90
2022-09-12T08:39:51.326Z,20.90
2022-09-12T08:42:49.955Z,21.60
2022-09-12T08:45:42.513Z,21.10
2022-09-12T08:48:29.672Z,22.50
2022-09-12T08:51:21.279Z,23.60
2022-09-12T08:54:21.454Z,23.70
2022-09-12T08:57:13.009Z,23.60
2022-09-12T09:00:00.439Z,23.10
2022-09-12T09:03:04.443Z,23.90
2022-09-12T09:05:59.110Z,24.70
2022-09-12T09:08:58.453Z,25.90
2022-09-12T09:11:58.920Z,25.20
2022-09-12T09:15:02.433Z,24.40
2022-09-12T09:17:53.444Z,23.60
2022-09-12T09:20:46.750Z,24.10
2022-09-12T09:23:37.706Z,24.90
2022-09-12T09:26:31.038Z,24.00
2022-09-12T09:29:20.530Z,24.80
2022-09-12T09:32:16.457Z,25.00
2022-09-12T09:35:04.364Z,25.00
2022-09-12T09:38:02.910Z,24.90
2022-09-12T09:41:02.215Z,24.60
2022-09-12T09:43:50.319Z,24.90
2022-09-12T09:46:37.317Z,25.80
2022-09-12T09:49:26.008Z,26.10
2022-09-12T09:52:16.817Z,25.70
2022-09-12T09:55:05.129Z,25.80
2022-09-12T09:57:52.840Z,25.10
2022-09-12T10:00:44.832Z,24.90
2022-09-12T10:03:34.553Z,23.20
2022-09-12T10:06:31.141Z,23.70
2022-09-12T10:09:24.922Z,24.50
2022-09-12T10:12:26.325Z,24.30
2022-09-12T10:15:20.146Z,24.20
2022-09-12T10:18:08.347Z,24.60
2022-09-12T10:20:55.228Z,25.40
2022-09-12T10:23:43.170Z,25.60
2022-09-12T10:26:35.751Z,25.80
2022-09-12T10:29:26.571Z,25.70
2022-09-12T10:32:16.268Z,25.80
2022-09-12T10:35:09.168Z,25.20
2022-09-12T10:37:58.817Z,25.70
2022-09-12T10:40:45.898Z,26.30
2022-09-12T10:43:37.413Z,25.90
2022-09-12T10:46:30.587Z,25.10
2022-09-12T10:49:29.902Z,25.60
2022-09-12T10:52:24.211Z,25.20
2022-09-12T10:55:15.889Z,25.10
2022-09-12T10:58:31.990Z,26.10
2022-09-12T11:01:35.149Z,26.60
2022-09-12T11:04:28.592Z,27.10
2022-09-12T11:07:34.282Z,27.00
2022-09-12T11:10:37.468Z,27.30
2022-09-12T11:13:41.548Z,26.00
2022-09-12T11:16:36.476Z,25.50
2022-09-12T11:19:49.887Z,25.80
2022-09-12T11:22:59.058Z,25.80
2022-09-12T11:25:50.857Z,25.60
2022-09-12T11:28:49.117Z,24.90
2022-09-12T11:31:57.390Z,25.00
2022-09-12T11:34:56.105Z,25.80
2022-09-12T11:37:56.430Z,25.30
2022-09-12T11:40:47.114Z,24.70
2022-09-12T11:43:39.812Z,24.50
2022-09-12T11:46:33.038Z,24.60
2022-09-12T11:49:35.395Z,24.80
2022-09-12T11:52:25.283Z,25.40
2022-09-12T11:55:19.927Z,26.00
2022-09-12T11:58:09.277Z,26.10
2022-09-12T12:00:59.845Z,26.60
2022-09-12T12:03:48.490Z,27.30
2022-09-12T12:06:44.593Z,27.50
2022-09-12T12:09:31.868Z,27.30
2022-09-12T12:12:25.061Z,27.60
2022-09-12T12:15:17.442Z,27.90
2022-09-12T12:18:07.294Z,27.50
2022-09-12T12:20:55.533Z,27.70
2022-09-12T12:23:57.527Z,27.10
2022-09-12T12:27:01.004Z,27.00
2022-09-12T12:29:49.348Z,27.20
2022-09-12T12:32:36.515Z,26.50
2022-09-12T12:35:40.217Z,26.10
2022-09-12T12:38:31.853Z,25.50
2022-09-12T12:41:44.311Z,26.00
2022-09-12T12:44:52.644Z,25.50
2022-09-12T12:47:44.191Z,25.50
2022-09-12T12:50:32.702Z,25.10
2022-09-12T12:53:24.126Z,24.40
2022-09-12T12:56:28.932Z,24.90
2022-09-12T12:59:21.359Z,25.10
2022-09-12T13:02:22.199Z,25.30
2022-09-12T13:05:22.832Z,25.10
2022-09-12T13:08:28.074Z,24.80
2022-09-12T13:11:29.539Z,25.10
2022-09-12T13:14:51.914Z,25.10
2022-09-12T13:17:44.288Z,25.00
2022-09-12T13:20:35.721Z,25.00
2022-09-12T13:23:27.713Z,24.30
2022-09-12T13:26:26.356Z,24.70
2022-09-12T13:29:16.473Z,24.40
2022-09-12T13:32:04.473Z,24.40
2022-09-12T13:35:07.902Z,24.20
2022-09-12T13:38:00.991Z,24.40
2022-09-12T13:41:04.434Z,24.20
2022-09-12T13:43:51.712Z,24.30
2022-09-12T13:46:39.111Z,24.10
2022-09-12T13:49:33.142Z,24.10
2022-09-12T13:52:26.910Z,24.20
2022-09-12T13:55:27.047Z,24.20
2022-09-12T13:58:21.028Z,24.00
2022-09-12T14:01:13.545Z,23.70
2022-09-12T14:04:18.364Z,23.30
2022-09-12T14:07:13.916Z,23.10
2022-09-12T14:10:04.832Z,23.10
2022-09-12T14:12:52.940Z,23.10
2022-09-12T14:15:40.591Z,22.90
2022-09-12T14:18:29.773Z,22.70
2022-09-12T14:21:28.480Z,22.90
2022-09-12T14:24:15.585Z,23.00
2022-09-12T14:27:03.659Z,23.00
2022-09-12T14:29:53.502Z,22.80
2022-09-12T14:32:41.905Z,22.40
2022-09-12T14:35:28.919Z,22.50
2022-09-12T14:38:22.743Z,22.60
2022-09-12T14:41:11.274Z,22.60
2022-09-12T14:44:01.666Z,22.70
2022-09-12T14:46:49.669Z,22.80
2022-09-12T14:49:38.010Z,22.80
2022-09-12T14:52:28.756Z,22.80
2022-09-12T14:55:29.985Z,22.90
2022-09-12T14:58:24.027Z,22.80
2022-09-12T15:01:26.485Z,22.80
2022-09-12T15:04:33.480Z,22.90
2022-09-12T15:07:30.607Z,22.90
2022-09-12T15:10:23.064Z,22.80
2022-09-12T15:13:19.599Z,22.40
2022-09-12T15:16:10.468Z,22.30
2022-09-12T15:19:00.117Z,22.30
2022-09-12T15:21:46.560Z,22.50
2022-09-12T15:24:33.257Z,22.60
2022-09-12T15:27:20.432Z,22.60
2022-09-12T15:30:08.627Z,22.30
2022-09-12T15:32:56.026Z,22.20
2022-09-12T15:35:44.115Z,22.20
2022-09-12T15:38:32.089Z,22.20
2022-09-12T15:41:20.440Z,22.20
2022-09-12T15:44:08.122Z,22.20
2022-09-12T15:46:55.126Z,22.30
2022-09-12T15:49:42.647Z,22.30
2022-09-12T15:52:31.536Z,22.40
2022-09-12T15:55:20.987Z,22.50
2022-09-12T15:58:07.722Z,22.50
2022-09-12T16:00:54.836Z,22.50
2022-09-12T16:03:41.974Z,22.40
2022-09-12T16:06:32.501Z,22.30
2022-09-12T16:09:25.187Z,22.30
2022-09-12T16:12:12.378Z,22.20
2022-09-12T16:14:59.411Z,22.10
2022-09-12T16:17:46.011Z,21.90
2022-09-12T16:20:32.619Z,21.80
2022-09-12T16:23:19.322Z,21.70
2022-09-12T16:26:08.040Z,21.60
2022-09-12T16:28:57.104Z,21.50
2022-09-12T16:31:43.872Z,21.40
2022-09-12T16:34:30.425Z,21.30
2022-09-12T16:37:17.001Z,21.00
2022-09-12T16:40:04.600Z,20.80
2022-09-12T16:42:53.123Z,20.60
2022-09-12T16:45:40.251Z,20.40
2022-09-12T16:48:27.321Z,20.20
2022-09-12T16:51:15.186Z,20.10
2022-09-12T16:54:02.597Z,20.00
2022-09-12T16:56:50.037Z,19.90
2022-09-12T16:59:38.367Z,19.90
2022-09-12T17:02:25.284Z,19.70
2022-09-12T17:05:12.316Z,19.70
2022-09-12T17:07:59.242Z,19.60
2022-09-12T17:10:45.972Z,19.40
2022-09-12T17:14:00.220Z,19.30
2022-09-12T17:16:43.463Z,19.20
2022-09-12T17:19:32.367Z,19.10
2022-09-12T17:22:19.293Z,19.00
2022-09-12T17:25:07.037Z,19.10
2022-09-12T17:27:53.916Z,19.10
2022-09-12T17:30:41.270Z,19.10
2022-09-12T17:33:30.191Z,19.00
2022-09-12T17:36:18.590Z,18.80
2022-09-12T17:39:05.622Z,18.70
2022-09-12T17:41:53.994Z,18.50
2022-09-12T17:44:41.002Z,18.30
2022-09-12T17:47:28.041Z,18.10
2022-09-12T17:50:31.967Z,18.00
2022-09-12T17:53:21.078Z,17.70
2022-09-12T17:56:09.369Z,17.60
2022-09-12T17:58:57.442Z,17.50
2022-09-12T18:02:01.877Z,17.30
2022-09-12T18:04:48.999Z,17.10
2022-09-12T18:07:38.918Z,17.00
2022-09-12T18:10:29.341Z,16.90
2022-09-12T18:13:16.359Z,16.80
2022-09-12T18:16:08.280Z,16.70
2022-09-12T18:18:55.278Z,16.60
2022-09-12T18:21:41.864Z,16.50
2022-09-12T18:24:28.920Z,16.40
2022-09-12T18:27:17.367Z,16.20
2022-09-12T18:30:20.754Z,16.10
2022-09-12T18:33:08.588Z,16.00
2022-09-12T18:35:55.681Z,15.80
2022-09-12T18:38:44.122Z,15.70
2022-09-12T18:41:31.176Z,15.60
2022-09-12T18:44:19.353Z,15.50
2022-09-12T18:47:06.904Z,15.40
2022-09-12T18:49:53.785Z,15.20
2022-09-12T18:52:40.721Z,15.10
2022-09-12T18:55:27.817Z,15.00
2022-09-12T18:58:14.592Z,14.90
2022-09-12T19:01:10.337Z,14.90
2022-09-12T19:03:57.841Z,14.90
2022-09-12T19:06:46.603Z,14.80
2022-09-12T19:09:33.953Z,14.60
2022-09-12T19:12:21.187Z,14.50
2022-09-12T19:15:09.860Z,14.40
2022-09-12T19:17:57.922Z,14.20
2022-09-12T19:20:44.848Z,14.20
2022-09-12T19:23:32.432Z,14.10
2022-09-12T19:26:20.524Z,14.00
2022-09-12T19:29:08.472Z,13.90
2022-09-12T19:31:56.381Z,13.80
2022-09-12T19:34:44.564Z,13.80
2022-09-12T19:37:31.166Z,13.70
2022-09-12T19:40:18.252Z,13.60
2022-09-12T19:43:05.501Z,13.50
2022-09-12T19:45:53.110Z,13.50
2022-09-12T19:48:39.761Z,13.30
2022-09-12T19:51:27.996Z,13.30
2022-09-12T19:54:15.099Z,13.20
2022-09-12T19:57:01.903Z,13.20
2022-09-12T19:59:48.637Z,13.10
2022-09-12T20:02:36.060Z,13.10
2022-09-12T20:05:22.953Z,13.00
2022-09-12T20:08:11.182Z,12.90
2022-09-12T20:10:58.105Z,13.00
2022-09-12T20:13:45.133Z,13.00
2022-09-12T20:16:33.548Z,13.10
2022-09-12T20:19:20.598Z,13.00
2022-09-12T20:22:07.688Z,12.90
2022-09-12T20:24:55.777Z,12.80
2022-09-12T20:27:42.509Z,12.70
2022-09-12T20:30:29.627Z,12.60
2022-09-12T20:33:16.387Z,12.60
2022-09-12T20:36:08.518Z,12.40
2022-09-12T20:38:57.831Z,12.30
2022-09-12T20:41:46.675Z,12.20
2022-09-12T20:44:33.313Z,12.10
2022-09-12T20:47:20.737Z,12.10
2022-09-12T20:50:08.507Z,12.00
2022-09-12T20:52:55.544Z,11.90
2022-09-12T20:55:50.008Z,11.90
2022-09-12T20:58:43.052Z,11.80
2022-09-12T21:01:31.900Z,11.80
2022-09-12T21:04:19.087Z,11.80
2022-09-12T21:07:06.239Z,11.80
2022-09-12T21:09:54.454Z,11.70
2022-09-12T21:12:41.657Z,11.60
2022-09-12T21:15:29.977Z,11.50
2022-09-12T21:18:17.014Z,11.50
2022-09-12T21:21:04.292Z,11.40
2022-09-12T21:23:51.789Z,11.40
2022-09-12T21:26:38.446Z,11.40
2022-09-12T21:29:25.767Z,11.40
2022-09-12T21:32:14.504Z,11.40
2022-09-12T21:35:01.264Z,11.30
2022-09-12T21:37:48.262Z,11.30
2022-09-12T21:40:35.151Z,11.20
2022-09-12T21:43:22.296Z,11.20
2022-09-12T21:46:10.165Z,11.20
2022-09-12T21:48:58.276Z,11.10
2022-09-12T21:51:45.141Z,11.10
2022-09-12T21:54:32.087Z,11.00
2022-09-12T21:57:18.634Z,11.00
2022-09-12T22:00:06.719Z,10.90
2022-09-12T22:02:53.779Z,10.90
2022-09-12T22:05:41.838Z,10.90
2022-09-12T22:08:30.208Z,10.80
2022-09-12T22:11:19.367Z,10.80
2022-09-12T22:14:06.044Z,10.70
2022-09-12T22:16:52.726Z,10.70
2022-09-12T22:19:39.975Z,10.70
2022-09-12T22:22:45.148Z,10.70
2022-09-12T22:25:32.143Z,10.60
2022-09-12T22:28:19.099Z,10.60
2022-09-12T22:31:06.618Z,10.50
2022-09-12T22:33:57.095Z,10.50
2022-09-12T22:36:44.342Z,10.40
2022-09-12T22:39:32.627Z,10.40
2022-09-12T22:42:19.453Z,10.30
2022-09-12T22:45:07.863Z,10.30
2022-09-12T22:47:57.163Z,10.30
2022-09-12T22:50:46.403Z,10.30
2022-09-12T22:53:33.665Z,10.30
2022-09-12T22:56:22.593Z,10.20
2022-09-12T22:59:10.008Z,10.20
2022-09-12T23:01:57.287Z,10.10
2022-09-12T23:04:44.281Z,10.10
2022-09-12T23:07:31.233Z,10.10
2022-09-12T23:10:17.983Z,10.10
2022-09-12T23:13:06.431Z,10.00
2022-09-12T23:15:58.915Z,10.00
2022-09-12T23:18:46.479Z,10.00
2022-09-12T23:21:33.162Z,10.00
2022-09-12T23:24:20.156Z,9.90
2022-09-12T23:27:07.238Z,9.90
2022-09-12T23:29:55.637Z,9.90
2022-09-12T23:32:42.496Z,9.80
2022-09-12T23:35:29.786Z,9.80
2022-09-12T23:38:16.957Z,9.80
2022-09-12T23:41:04.976Z,9.80
2022-09-12T23:43:52.583Z,9.80
2022-09-12T23:46:40.808Z,9.70
2022-09-12T23:49:27.697Z,9.70
2022-09-12T23:52:14.773Z,9.60
2022-09-12T23:55:01.678Z,9.60
2022-09-12T23:57:48.730Z,9.60
